Sierra Nevada Aquatic Research Lab (SNARL) Reserve, California Weather observations

Data are for 10 minute period ending at time listed.
 Day   Time   Solar   Ave.   Ave.  Ave.  Vector  Max.   Baro.   Total    
  of    of     Rad.   Air    Rel.  Wind   Wind   Wind  Press.  Precip.   
Year   Day            Temp.  Hum.  Speed  Dir.   Gust                    
2016   (PST)  Kw/m2    F      %     mph   deg.    mph    mb.     in.     
-------------------------------------------------------------------------
 343   10:10   0.19   32.6    76    3.2    72     5.0   785.7    0.00 
 343   10:20   0.15   33.5    75    1.3    80     4.3   785.7    0.00 
 343   10:30   0.14   33.9    74    2.2    61     4.7   785.8    0.00 
 343   10:40   0.17   33.9    74    4.4    81     6.9   785.9    0.00 
 343   10:50   0.22   34.1    73    4.8    80     9.9   785.8    0.00 
 343   11:00   0.24   34.6    75    3.4    63     9.6   785.5    0.00 
 343   11:10   0.26   36.3    75    4.1   347     8.6   785.3    0.00 
 343   11:20   0.33   38.5    74    4.4    67     8.7   785.1    0.00 
 343   11:30   0.40   39.8    71    3.5    51     7.1   785.1    0.00 
 343   11:40   0.36   40.8    70    2.1    55     5.5   784.9    0.00 
 343   11:50   0.41   43.2    66    2.5    55     7.3   784.9    0.00 
 343   12:00   0.42   43.6    66    6.5    77    10.6   784.8    0.00 
 343   12:10   0.54   45.8    64    6.6    58     9.3   784.5    0.00 
 343   12:20   0.48   45.6    65    9.6    81    15.4   784.5    0.00 
 343   12:30   0.44   45.1    65    7.5    78    14.1   784.4    0.00 
 343   12:40   0.42   45.6    64    4.8    77    16.4   784.4    0.00 
 343   12:50   0.39   50.0    50   11.4   264    22.1   784.4    0.00 
 343   13:00   0.33   50.0    49   10.1   251    16.2   784.4    0.00 
 343   13:10   0.31   49.9    46   10.7   245    18.9   784.4    0.00 
 343   13:20   0.25   49.5    45    8.9   253    20.8   784.3    0.00 
 343   13:30   0.20   48.0    51   11.6   220    22.1   784.5    0.00 
 343   13:40   0.28   48.5    49    7.7   242    16.5   784.6    0.00 
 343   13:50   0.22   48.8    46   11.3   227    25.9   784.6    0.00 
 343   14:00   0.26   48.9    44    9.6   245    17.2   784.7    0.00 
 343   14:10   0.21   48.7    42    9.1   254    21.5   784.8    0.00 
 343   14:20   0.14   48.3    44    5.6   260    14.9   784.9    0.00 
 343   14:30   0.13   47.8    46    6.5   258    19.4   784.9    0.00 
 343   14:40   0.13   47.7    48    9.2   253    19.7   785.0    0.00 
 343   14:50   0.11   47.9    48    9.9   274    17.8   785.2    0.00 
 343   15:00   0.10   47.9    49    6.7   250    15.6   785.2    0.00 
 343   15:10   0.08   47.5    49   10.7   261    21.9   785.2    0.00 
 343   15:20   0.06   46.8    49   10.1   269    20.3   785.2    0.00 
 343   15:30   0.04   46.1    50    8.9   271    16.1   785.2    0.00 
 343   15:40   0.03   46.1    44   10.2   258    16.9   785.2    0.00 
 343   15:50   0.03   46.3    42   11.8   237    22.9   785.2    0.00 
 343   16:00   0.02   46.3    41   10.6   242    22.5   785.2    0.00 
 343   16:10   0.01   46.1    40   18.1   219    31.0   785.4    0.00 
 343   16:20   0.01   45.9    36   18.0   215    29.4   785.5    0.00 
 343   16:30   0.01   45.4    35   16.4   222    27.2   785.5    0.00 
 343   16:40   0.00   44.8    36   16.3   220    30.8   785.6    0.00 
 343   16:50   0.00   44.6    37   21.7   216    33.7   785.6    0.00 
 343   17:00   0.00   44.6    37   21.3   210    35.4   785.6    0.00 
 343   17:10   0.00   44.6    37   21.4   210    33.1   785.7    0.00 
 343   17:20   0.00   44.7    38   19.1   208    31.2   785.8    0.00 
 343   17:30   0.00   44.8    41   19.7   216    33.0   785.7    0.00 
 343   17:40   0.00   45.1    40   18.9   214    28.4   785.7    0.00 
 343   17:50   0.00   45.4    40   19.2   211    33.3   785.7    0.00 
 343   18:00   0.00   45.6    40   20.8   209    35.5   785.6    0.00 
 343   18:10   0.00   45.8    41   19.2   219    28.4   785.7    0.00 
 343   18:20   0.00   45.9    40   19.7   216    36.1   785.7    0.00 
 343   18:30   0.00   45.7    40   12.2   220    22.6   785.8    0.00 
 343   18:40   0.00   45.7    39   16.2   216    27.1   785.7    0.00 
 343   18:50   0.00   45.7    38   14.2   206    28.9   785.7    0.00 
 343   19:00   0.00   45.5    37   11.6   177    20.2   785.7    0.00 
 343   19:10   0.00   45.8    36   11.8   208    30.1   785.9    0.00 
 343   19:20   0.00   45.6    36   10.6   223    21.7   785.9    0.00 
 343   19:30   0.00   44.4    40    5.7    71    11.4   786.1    0.00 
 343   19:40   0.00   42.3    44    3.9   247    19.8   786.2    0.00 
 343   19:50   0.00   44.6    40    8.7   235    17.5   786.2    0.00 
 343   20:00   0.00   44.4    40    4.1   183     8.8   786.5    0.00 
 343   20:10   0.00   42.3    47    3.0    17     8.4   786.6    0.00 
 343   20:20   0.00   39.3    52    4.5   130     8.4   786.6    0.00 
 343   20:30   0.00   37.3    56    2.2   240     6.2   786.6    0.00 
 343   20:40   0.00   38.5    54    2.9   270     6.7   786.5    0.00 
 343   20:50   0.00   38.5    52    2.8   302     8.2   786.4    0.00 
 343   21:00   0.00   35.2    57    2.7   129     6.0   786.5    0.00 
 343   21:10   0.00   35.3    57    2.6    76     5.6   786.5    0.00 
 343   21:20   0.00   36.3    56    4.8    63     9.1   786.6    0.00 
 343   21:30   0.00   37.5    54    4.2    17     7.7   786.7    0.00 
 343   21:40   0.00   36.8    55    3.0   138     5.8   786.8    0.00 
 343   21:50   0.00   35.2    58    2.0   335     3.7   787.0    0.00 
 343   22:00   0.00   34.0    61    3.6    99     8.2   787.1    0.00 
 343   22:10   0.00   36.1    59    3.0    36     5.3   787.0    0.00 
 343   22:20   0.00   37.0    57    3.5    70     6.7   787.0    0.00 
 343   22:30   0.00   35.4    61    2.0   281     6.4   787.1    0.00 
 343   22:40   0.00   34.0    67    5.0   162    10.4   787.3    0.00 
 343   22:50   0.00   33.8    66    2.1   259     7.8   787.3    0.00 
 343   23:00   0.00   38.0    52    5.9   191    14.8   787.3    0.00 
 343   23:10   0.00   40.8    48    3.4   104     8.4   787.3    0.00 
 343   23:20   0.00   37.2    58    4.9   166    10.8   787.4    0.00 
 343   23:30   0.00   41.8    44    4.3   238    16.7   787.5    0.00 
 343   23:40   0.00   43.5    42    8.2   234    14.9   787.4    0.00 
 343   23:50   0.00   40.5    52    4.4   157    13.7   787.4    0.00 
 344    0:00   0.00   37.4    58    4.9   272    16.6   787.3    0.00 
 344    0:10   0.00   41.4    42    6.5   217    13.9   787.2    0.00 
 344    0:20   0.00   41.8    44    3.6    47    11.2   787.2    0.00 
 344    0:30   0.00   36.4    64    3.2    50     8.3   787.4    0.00 
 344    0:40   0.00   34.3    72    4.1    34     7.2   787.4    0.00 
 344    0:50   0.00   33.3    76    4.4    46     8.8   787.4    0.00 
 344    1:00   0.00   32.9    77    3.3   330     8.7   787.4    0.00 
 344    1:10   0.00   32.7    78    4.2   322     9.7   787.4    0.00 
 344    1:20   0.00   36.7    58    7.1   231    18.6   787.2    0.00 
 344    1:30   0.00   39.3    52    5.3   167    18.2   787.4    0.00 
 344    1:40   0.00   43.2    36   15.5   219    27.5   787.5    0.00 
 344    1:50   0.00   44.8    35   15.2   228    27.0   787.6    0.00 
 344    2:00   0.00   44.8    35   12.7   221    25.1   787.6    0.00 
 344    2:10   0.00   44.4    36    6.6   216    16.1   787.6    0.00 
 344    2:20   0.00   40.0    58    3.9    34    10.5   787.7    0.00 
 344    2:30   0.00   36.3    71    7.3    45    18.8   787.6    0.00 
 344    2:40   0.00   35.6    73    5.2    52    12.5   787.8    0.00 
 344    2:50   0.00   33.9    76    4.0    82     8.4   787.8    0.00 
 344    3:00   0.00   32.4    77    2.8   294     6.6   787.7    0.00 
 344    3:10   0.00   33.1    73    3.2   109     8.4   787.5    0.00 
 344    3:20   0.00   34.1    72    6.0    30    10.2   787.3    0.00 
 344    3:30   0.00   33.5    75    3.2    11     7.2   787.3    0.00 
 344    3:40   0.00   33.2    74    2.0   108     4.7   787.3    0.00 
 344    3:50   0.00   30.9    77    3.4   145     6.4   787.3    0.00 
 344    4:00   0.00   31.5    79    2.3   201     6.2   787.3    0.00 
 344    4:10   0.00   31.1    76    2.7   214     8.6   787.2    0.00 
 344    4:20   0.00   30.4    76    1.8   356     4.8   787.2    0.00 
 344    4:30   0.00   30.5    75    2.9   127     7.2   787.2    0.00 
 344    4:40   0.00   30.5    75    2.6   210     6.6   787.2    0.00 
 344    4:50   0.00   29.8    76    2.5   295     5.2   787.2    0.00 
 344    5:00   0.00   28.5    78    2.3   208     6.2   787.1    0.00 
 344    5:10   0.00   27.5    79    1.8   159     5.3   787.2    0.00 
 344    5:20   0.00   26.3    81    3.8   224     7.7   787.1    0.00 
 344    5:30   0.00   26.7    80    1.9   274     4.3   787.2    0.00 
 344    5:40   0.00   26.5    80    4.1   214     9.6   787.2    0.00 
 344    5:50   0.00   26.5    81    3.1   116     5.3   787.1    0.00 
 344    6:00   0.00   27.9    79    2.0    76     4.2   787.1    0.00 
 344    6:10   0.00   27.6    78    3.1   228     6.4   787.3    0.00 
 344    6:20   0.00   27.0    79    2.6   213     5.5   787.2    0.00 
 344    6:30   0.00   26.5    79    2.7    80     5.3   787.2    0.00 
 344    6:40   0.00   26.8    79    2.2   199     8.8   787.1    0.00 
 344    6:50   0.00   28.7    77    3.7    39     6.5   787.1    0.00 
 344    7:00   0.00   28.9    75    1.8   184     4.7   787.2    0.00 
 344    7:10   0.00   28.2    76    2.9   225     6.1   787.2    0.00 
 344    7:20   0.01   28.2    77    1.6   234     6.9   787.1    0.00 
 344    7:30   0.02   29.1    75    2.2   319     5.8   787.3    0.00 
 344    7:40   0.03   27.6    79    3.7   237     6.4   787.5    0.00 
 344    7:50   0.04   28.3    78    3.3   248     5.0   787.6    0.00 
 344    8:00   0.06   29.8    75    5.6   336    13.7   787.5    0.00 
 344    8:10   0.12   33.7    67    2.9   104     7.4   787.5    0.00 
 344    8:20   0.24   38.1    58    3.0   314     7.7   787.7    0.00 
 344    8:30   0.22   43.5    43    5.8   284    21.3   787.7    0.00 
 344    8:40   0.17   44.4    39    9.0   270    30.5   787.8    0.00 
 344    8:50   0.26   42.8    50    6.3   350    12.1   788.0    0.00 
 344    9:00   0.21   38.8    59    9.9    66    14.6   788.1    0.00 
 344    9:10   0.20   39.0    56    5.5    55    13.4   788.1    0.00 
 344    9:20   0.18   40.7    54    3.9    38     8.5   788.2    0.00 
 344    9:30   0.15   41.6    53    5.3    24     7.9   788.2    0.00 
 344    9:40   0.19   42.2    51    2.5     6     5.8   788.4    0.00 
 344    9:50   0.40   46.0    44    2.4    58     5.2   788.3    0.00 
 344   10:00   0.42   48.3    38    5.8    11    12.8   788.0    0.00 

Return to SNARL Reserve graphs page.


Western Regional Climate Center,wrcc@dri.edu